CheckWX is a tool to help pilots better visualize weather data.  It is not intended as a substitute for an official pre-flight weather briefing.

02:52:28 UTC

EDNY METAR
Friedrichshafen Airport
Friedrichshafen, Germany
Current

32 mins ago

EDNY 240220Z AUTO 07004KT 9999 // NCD 02/00 Q1024
Observed
Mar-24 @ 02:20 UTC
Wind
  • 070° at 4 KTS
Visibility
10,000+ meters
Flight Rules
VFR
Cloud Levels
  • Clear skies
Temperature
C / 36°F
Dewpoint
C / 32°F
Humidity
87%
Altimeter
30.24" Hg
Pressure
1023.92 hPa
Previous

1 hour ago

EDNY 240150Z AUTO VRB02KT 9999 // NCD 03/00 Q1024
Observed
Mar-24 @ 01:50 UTC
Wind
  • Variable at 2 KTS
Visibility
10,000+ meters
Flight Rules
VFR
Cloud Levels
  • Clear skies
Temperature
C / 37°F
Dewpoint
C / 32°F
Humidity
81%
Altimeter
30.24" Hg
Pressure
1023.92 hPa
Previous

2 hours ago

EDNY 240120Z AUTO 04003KT 350V080 9999 // NCD 04/01 Q1024
Observed
Mar-24 @ 01:20 UTC
Wind
  • 040° at 3 KTS
Visibility
10,000+ meters
Flight Rules
VFR
Cloud Levels
  • Clear skies
Temperature
C / 39°F
Dewpoint
C / 34°F
Humidity
81%
Altimeter
30.24" Hg
Pressure
1023.92 hPa